Time;durP1;ratioP1;P1;durP2;ratioP2;P2;SDS_P1;SDS_P2;PMS_P1;PMS_P2;Temp;Humidity;BMP_temperature;BMP_pressure;BME280_temperature;BME280_humidity;BME280_pressure;Samples;Min_cycle;Max_cycle;Signal;HPM_P1;HPM_P2
2022/04/01 00:01:56;;;;;;;;;;;4.10;99.90;;;;;;4898737;29;19947;-86
2022/04/01 00:04:21;;;;;;;;;;;4.10;99.90;;;;;;4915332;29;20387;-86
2022/04/01 00:06:47;;;;;;;;;;;4.10;99.90;;;;;;4914792;29;20439;-85
2022/04/01 00:09:12;;;;;;;;;;;4.10;99.90;;;;;;4914530;29;19911;-86
2022/04/01 00:11:38;;;;;;;;;;;4.20;99.90;;;;;;4915650;29;19911;-86
2022/04/01 00:14:03;;;;;;;;;;;4.30;99.90;;;;;;4899057;29;19911;-85
2022/04/01 00:16:29;;;;;;;;;;;4.20;99.90;;;;;;4915245;29;20307;-85
2022/04/01 00:18:55;;;;;;;;;;;4.20;99.90;;;;;;4898277;29;20400;-86
2022/04/01 00:21:21;;;;;;;;;;;4.20;99.90;;;;;;4915302;29;19919;-85
2022/04/01 00:23:47;;;;;;;;;;;4.20;99.90;;;;;;4915387;29;19911;-86
2022/04/01 00:26:12;;;;;;;;;;;4.20;99.90;;;;;;4914226;29;20486;-85
2022/04/01 00:28:38;;;;;;;;;;;4.20;99.90;;;;;;4915548;29;19911;-86
2022/04/01 00:31:03;;;;;;;;;;;4.20;99.90;;;;;;4915289;29;19966;-85
2022/04/01 00:33:31;;;;;;;;;;;4.10;99.90;;;;;;4915359;29;19917;-86
2022/04/01 00:35:56;;;;;;;;;;;4.20;99.90;;;;;;4915177;29;20021;-86
2022/04/01 00:38:22;;;;;;;;;;;4.10;99.90;;;;;;4913831;29;20027;-86
2022/04/01 00:40:50;;;;;;;;;;;4.10;99.90;;;;;;4897907;29;20414;-85
2022/04/01 00:43:16;;;;;;;;;;;4.10;99.90;;;;;;4915099;29;19911;-86
2022/04/01 00:45:42;;;;;;;;;;;4.10;99.90;;;;;;4913224;29;19918;-86
2022/04/01 00:48:07;;;;;;;;;;;4.10;99.90;;;;;;4915216;29;19911;-85
2022/04/01 00:50:33;;;;;;;;;;;4.10;99.90;;;;;;4914870;29;20376;-86
2022/04/01 00:52:59;;;;;;;;;;;4.10;99.90;;;;;;4915069;29;20050;-85
2022/04/01 00:55:25;;;;;;;;;;;4.00;99.90;;;;;;4914783;29;20379;-86
2022/04/01 00:57:51;;;;;;;;;;;4.00;99.90;;;;;;4913259;29;20104;-86
2022/04/01 01:00:17;;;;;;;;;;;4.00;99.90;;;;;;4897559;29;20500;-85
2022/04/01 01:02:43;;;;;;;;;;;4.00;99.90;;;;;;4913020;29;19924;-85
2022/04/01 01:05:08;;;;;;;;;;;4.10;99.90;;;;;;4914812;29;19911;-85
2022/04/01 01:07:35;;;;;;;;;;;4.10;99.90;;;;;;4914696;29;19911;-86
2022/04/01 01:10:00;;;;;;;;;;;4.00;99.90;;;;;;4914968;29;20025;-86
2022/04/01 01:12:26;;;;;;;;;;;4.00;99.90;;;;;;4913090;29;20392;-86
2022/04/01 01:14:51;;;;;;;;;;;4.00;99.90;;;;;;4914537;29;19962;-85
2022/04/01 01:17:17;;;;;;;;;;;4.00;99.90;;;;;;4916186;29;19934;-86
2022/04/01 01:19:45;;;;;;;;;;;4.00;99.90;;;;;;4901637;29;19922;-85
2022/04/01 01:22:12;;;;;;;;;;;4.00;99.90;;;;;;4918538;29;19912;-86
2022/04/01 01:24:41;;;;;;;;;;;4.10;99.90;;;;;;4918394;29;19911;-85
2022/04/01 01:27:08;;;;;;;;;;;4.10;99.90;;;;;;4918663;29;20403;-85
2022/04/01 01:29:34;;;;;;;;;;;4.10;99.90;;;;;;4918237;29;19911;-86
2022/04/01 01:32:01;;;;;;;;;;;3.90;99.90;;;;;;4918845;29;19918;-86
2022/04/01 01:34:27;;;;;;;;;;;4.00;99.90;;;;;;4918462;29;19959;-85
2022/04/01 01:36:53;;;;;;;;;;;3.90;99.90;;;;;;4917069;29;20436;-87
2022/04/01 01:39:19;;;;;;;;;;;3.90;99.90;;;;;;4917024;29;21874;-85
2022/04/01 01:41:45;;;;;;;;;;;4.00;99.90;;;;;;4918566;29;19918;-86
2022/04/01 01:44:11;;;;;;;;;;;3.90;99.90;;;;;;4918109;29;19915;-86
2022/04/01 01:46:38;;;;;;;;;;;3.90;99.90;;;;;;4918151;29;20001;-86
2022/04/01 01:49:03;;;;;;;;;;;3.80;99.90;;;;;;4918221;29;19961;-86
2022/04/01 01:56:59;;;;;;;;;;;3.90;99.90;;;;;;4918419;29;19966;-85
2022/04/01 01:59:25;;;;;;;;;;;4.00;99.90;;;;;;4918012;29;20337;-86
2022/04/01 02:01:50;;;;;;;;;;;3.90;99.90;;;;;;4917423;29;20015;-86
2022/04/01 02:04:16;;;;;;;;;;;3.90;99.90;;;;;;4918305;29;19915;-85
2022/04/01 02:06:41;;;;;;;;;;;3.90;99.90;;;;;;4917446;29;20171;-86
2022/04/01 02:09:07;;;;;;;;;;;3.80;99.90;;;;;;4900904;29;19933;-85
2022/04/01 02:11:32;;;;;;;;;;;3.80;99.90;;;;;;4917906;29;20084;-86
2022/04/01 02:13:58;;;;;;;;;;;3.80;99.90;;;;;;4917980;29;19911;-85
2022/04/01 02:16:24;;;;;;;;;;;3.80;99.90;;;;;;4917609;29;20373;-85
2022/04/01 02:18:50;;;;;;;;;;;3.90;99.90;;;;;;4916066;29;19912;-85
2022/04/01 02:21:16;;;;;;;;;;;3.80;99.90;;;;;;4916335;29;19926;-85
2022/04/01 02:23:45;;;;;;;;;;;3.90;99.90;;;;;;4900370;29;20446;-87
2022/04/01 02:26:12;;;;;;;;;;;3.80;99.90;;;;;;4917825;29;19966;-85
2022/04/01 02:28:38;;;;;;;;;;;3.80;99.90;;;;;;4916537;29;19967;-85
2022/04/01 02:31:04;;;;;;;;;;;3.90;99.90;;;;;;4900297;29;19970;-86
2022/04/01 02:33:31;;;;;;;;;;;3.90;99.90;;;;;;4900428;29;19922;-86
2022/04/01 02:35:58;;;;;;;;;;;3.90;99.90;;;;;;4917819;29;19911;-85
2022/04/01 02:38:27;;;;;;;;;;;3.90;99.90;;;;;;4917477;29;20414;-86
2022/04/01 02:40:54;;;;;;;;;;;3.90;99.90;;;;;;4917243;29;19926;-86
2022/04/01 02:43:20;;;;;;;;;;;3.90;99.90;;;;;;4915819;29;19915;-86
2022/04/01 02:45:48;;;;;;;;;;;3.90;99.90;;;;;;4915775;29;19967;-86
2022/04/01 02:48:14;;;;;;;;;;;3.90;99.90;;;;;;4917105;29;19912;-86
2022/04/01 02:50:40;;;;;;;;;;;3.90;99.90;;;;;;4915585;29;19915;-86
2022/04/01 02:53:06;;;;;;;;;;;3.90;99.90;;;;;;4917203;29;19967;-86
2022/04/01 02:55:32;;;;;;;;;;;3.90;99.90;;;;;;4899955;29;20407;-85
2022/04/01 02:57:59;;;;;;;;;;;3.90;99.90;;;;;;4900102;29;20269;-86
2022/04/01 03:00:24;;;;;;;;;;;3.90;99.90;;;;;;4916887;29;19930;-85
2022/04/01 03:02:50;;;;;;;;;;;3.90;99.90;;;;;;4915239;29;19930;-85
2022/04/01 03:05:17;;;;;;;;;;;3.90;99.90;;;;;;4916815;29;20300;-86
2022/04/01 03:07:44;;;;;;;;;;;3.80;99.90;;;;;;4916753;29;19912;-86
2022/04/01 03:10:10;;;;;;;;;;;3.80;99.90;;;;;;4916775;29;19911;-86
2022/04/01 03:12:35;;;;;;;;;;;3.80;99.90;;;;;;4915393;29;19918;-86
2022/04/01 03:15:02;;;;;;;;;;;3.80;99.90;;;;;;4916661;29;19957;-85
2022/04/01 03:17:28;;;;;;;;;;;3.80;99.90;;;;;;4915390;29;19918;-86
2022/04/01 03:19:54;;;;;;;;;;;3.80;99.90;;;;;;4914999;29;19915;-86
2022/04/01 03:22:20;;;;;;;;;;;3.80;99.90;;;;;;4916589;29;20195;-85
2022/04/01 03:24:46;;;;;;;;;;;3.90;99.90;;;;;;4916416;29;19949;-86
2022/04/01 03:27:12;;;;;;;;;;;3.90;99.90;;;;;;4916373;29;19918;-85
2022/04/01 03:29:38;;;;;;;;;;;3.90;99.90;;;;;;4916346;29;20304;-86
2022/04/01 03:32:04;;;;;;;;;;;3.90;99.90;;;;;;4899424;29;20206;-86
2022/04/01 03:34:31;;;;;;;;;;;3.90;99.90;;;;;;4916416;29;20300;-86
2022/04/01 03:36:56;;;;;;;;;;;3.90;99.90;;;;;;4914968;29;19911;-86
2022/04/01 03:39:23;;;;;;;;;;;3.80;99.90;;;;;;4915963;29;19933;-86
2022/04/01 03:41:49;;;;;;;;;;;3.80;99.90;;;;;;4916157;29;19915;-85
2022/04/01 03:44:15;;;;;;;;;;;3.90;99.90;;;;;;4915040;29;19912;-85
2022/04/01 03:46:49;;;;;;;;;;;3.80;99.90;;;;;;4915836;29;19919;-85
2022/04/01 03:49:22;;;;;;;;;;;3.90;99.90;;;;;;4899305;29;20365;-85
2022/04/01 03:51:49;;;;;;;;;;;3.80;99.90;;;;;;4916000;29;19915;-85
2022/04/01 03:54:15;;;;;;;;;;;3.80;99.90;;;;;;4914816;29;20292;-85
2022/04/01 03:56:43;;;;;;;;;;;3.80;99.90;;;;;;4914628;29;20033;-84
2022/04/01 03:59:12;;;;;;;;;;;3.80;99.90;;;;;;4898882;29;19919;-85
2022/04/01 04:01:38;;;;;;;;;;;3.80;99.90;;;;;;4899046;29;20288;-85
2022/04/01 04:04:04;;;;;;;;;;;3.70;99.90;;;;;;4915432;29;19923;-85
2022/04/01 04:06:32;;;;;;;;;;;3.80;99.90;;;;;;4915636;29;19915;-85
2022/04/01 04:08:58;;;;;;;;;;;3.80;99.90;;;;;;4914285;29;19915;-85
2022/04/01 04:11:25;;;;;;;;;;;3.80;99.90;;;;;;4914375;29;19911;-85
2022/04/01 04:13:55;;;;;;;;;;;3.80;99.90;;;;;;4914460;29;19918;-85
2022/04/01 04:16:24;;;;;;;;;;;3.80;99.90;;;;;;4915591;29;19911;-85
2022/04/01 04:18:53;;;;;;;;;;;3.80;99.90;;;;;;4915678;29;20424;-85
2022/04/01 04:21:26;;;;;;;;;;;3.90;99.90;;;;;;4915603;29;20017;-85
2022/04/01 04:23:56;;;;;;;;;;;3.90;99.90;;;;;;4898433;29;19988;-86
2022/04/01 04:26:29;;;;;;;;;;;3.80;99.90;;;;;;4915251;29;20356;-85
2022/04/01 04:28:58;;;;;;;;;;;3.90;99.90;;;;;;4915506;29;19915;-85
2022/04/01 04:31:26;;;;;;;;;;;3.90;99.90;;;;;;4913874;29;20280;-86
2022/04/01 04:33:54;;;;;;;;;;;3.90;99.90;;;;;;4915465;29;19915;-86
2022/04/01 04:36:23;;;;;;;;;;;3.90;99.90;;;;;;4915285;29;20376;-86
2022/04/01 04:38:49;;;;;;;;;;;3.90;99.90;;;;;;4915283;29;20390;-86
2022/04/01 04:41:17;;;;;;;;;;;4.00;99.90;;;;;;4913994;29;19946;-86
2022/04/01 04:43:46;;;;;;;;;;;3.90;99.90;;;;;;4915237;29;19911;-86
2022/04/01 04:46:13;;;;;;;;;;;3.90;99.90;;;;;;4914968;29;19912;-86
2022/04/01 04:48:40;;;;;;;;;;;3.90;99.90;;;;;;4914884;29;19915;-86
2022/04/01 04:51:06;;;;;;;;;;;3.90;99.90;;;;;;4914702;29;19918;-86
2022/04/01 04:53:33;;;;;;;;;;;3.80;99.90;;;;;;4914771;29;19911;-85
2022/04/01 04:55:59;;;;;;;;;;;3.80;99.90;;;;;;4915165;29;19911;-85
2022/04/01 04:58:30;;;;;;;;;;;3.80;99.90;;;;;;4915112;29;20317;-86
2022/04/01 05:01:00;;;;;;;;;;;3.80;99.90;;;;;;4914890;29;19919;-86
2022/04/01 05:03:40;;;;;;;;;;;3.80;99.90;;;;;;4914783;29;19923;-86
2022/04/01 05:06:07;;;;;;;;;;;3.80;99.90;;;;;;4897761;29;19970;-85
2022/04/01 05:08:40;;;;;;;;;;;3.80;99.90;;;;;;4914743;29;19911;-85
2022/04/01 05:11:14;;;;;;;;;;;3.80;99.90;;;;;;4913320;29;19994;-86
2022/04/01 05:14:00;;;;;;;;;;;3.80;99.90;;;;;;4914787;29;19912;-86
2022/04/01 05:16:35;;;;;;;;;;;3.80;99.90;;;;;;4913364;29;19911;-86
2022/04/01 05:19:08;;;;;;;;;;;3.80;99.90;;;;;;4897913;29;20031;-86
2022/04/01 05:21:39;;;;;;;;;;;3.80;99.90;;;;;;4914775;29;19919;-86
2022/04/01 05:24:06;;;;;;;;;;;3.80;99.90;;;;;;4914941;29;19998;-85
2022/04/01 05:26:40;;;;;;;;;;;3.80;99.90;;;;;;4914763;29;20365;-85
2022/04/01 05:29:09;;;;;;;;;;;3.70;99.90;;;;;;4914500;29;19963;-86
2022/04/01 05:31:37;;;;;;;;;;;3.80;99.90;;;;;;4913070;29;19918;-87
2022/04/01 05:34:04;;;;;;;;;;;3.80;99.90;;;;;;4897574;29;19911;-85
2022/04/01 05:36:30;;;;;;;;;;;3.80;99.90;;;;;;4914618;29;19911;-86
2022/04/01 05:38:59;;;;;;;;;;;3.80;99.90;;;;;;4950056;29;20383;-86
2022/04/01 05:41:25;;;;;;;;;;;3.90;99.90;;;;;;4935434;29;19973;-86
2022/04/01 05:43:50;;;;;;;;;;;3.90;99.90;;;;;;4952570;29;19911;-86
2022/04/01 05:46:17;;;;;;;;;;;3.90;99.90;;;;;;4951250;29;19957;-85
2022/04/01 05:48:43;;;;;;;;;;;3.90;99.90;;;;;;4952501;29;19953;-86
2022/04/01 05:51:15;;;;;;;;;;;3.90;99.90;;;;;;4952520;29;19950;-86
2022/04/01 05:53:44;;;;;;;;;;;3.90;99.90;;;;;;4952400;29;20298;-86
2022/04/01 05:56:11;;;;;;;;;;;3.90;99.90;;;;;;4952569;29;20252;-86
2022/04/01 05:58:36;;;;;;;;;;;4.00;99.90;;;;;;4952521;29;19918;-85
2022/04/01 06:01:19;;;;;;;;;;;4.00;99.90;;;;;;4935017;29;19918;-86
2022/04/01 06:04:05;;;;;;;;;;;3.90;99.90;;;;;;4954437;28;20174;-85
2022/04/01 06:06:43;;;;;;;;;;;3.90;99.90;;;;;;4956103;29;19910;-86
2022/04/01 06:09:21;;;;;;;;;;;3.90;99.90;;;;;;4956139;29;20166;-86
2022/04/01 06:11:49;;;;;;;;;;;3.90;99.90;;;;;;4955954;29;20025;-86
2022/04/01 06:14:25;;;;;;;;;;;3.90;99.90;;;;;;4955912;29;19937;-86
2022/04/01 06:16:58;;;;;;;;;;;3.90;99.90;;;;;;4956384;29;19918;-85
2022/04/01 06:19:29;;;;;;;;;;;3.90;99.90;;;;;;4956090;29;19910;-86
2022/04/01 06:22:03;;;;;;;;;;;4.00;99.90;;;;;;4955861;29;19911;-85
2022/04/01 06:24:31;;;;;;;;;;;4.00;99.90;;;;;;4953976;29;19911;-85
2022/04/01 06:26:58;;;;;;;;;;;4.10;99.90;;;;;;4955753;29;19917;-86
2022/04/01 06:29:26;;;;;;;;;;;4.10;99.90;;;;;;4955675;29;19914;-86
2022/04/01 06:31:53;;;;;;;;;;;4.20;99.90;;;;;;4938232;29;19910;-86
2022/04/01 06:34:25;;;;;;;;;;;4.10;99.90;;;;;;4955505;29;19910;-86
2022/04/01 06:36:53;;;;;;;;;;;4.20;99.90;;;;;;4954194;29;20331;-86
2022/04/01 06:39:37;;;;;;;;;;;4.30;99.90;;;;;;4955545;29;20380;-85
2022/04/01 06:42:04;;;;;;;;;;;4.30;99.90;;;;;;4955634;29;19918;-86
2022/04/01 06:44:30;;;;;;;;;;;4.40;99.90;;;;;;4954146;29;19916;-86
2022/04/01 06:46:55;;;;;;;;;;;4.50;99.90;;;;;;4953683;29;19910;-86
2022/04/01 06:49:22;;;;;;;;;;;4.50;99.90;;;;;;4955342;29;19973;-86
2022/04/01 06:51:47;;;;;;;;;;;4.60;99.90;;;;;;4937911;29;19910;-86
2022/04/01 06:54:13;;;;;;;;;;;4.60;99.90;;;;;;4937881;29;19910;-85
2022/04/01 06:56:39;;;;;;;;;;;4.80;99.90;;;;;;4955108;29;19910;-86
2022/04/01 06:59:05;;;;;;;;;;;4.80;99.90;;;;;;4954905;29;20390;-86
2022/04/01 07:01:31;;;;;;;;;;;4.90;99.90;;;;;;4954944;29;20014;-86
2022/04/01 07:03:56;;;;;;;;;;;4.90;99.90;;;;;;4954617;29;19922;-86
2022/04/01 07:06:22;;;;;;;;;;;5.10;99.90;;;;;;4955187;29;20335;-86
2022/04/01 07:08:48;;;;;;;;;;;5.10;99.90;;;;;;4953434;29;19911;-86
2022/04/01 07:11:14;;;;;;;;;;;5.20;99.90;;;;;;4955215;29;19935;-86
2022/04/01 07:13:39;;;;;;;;;;;5.30;99.90;;;;;;4954521;29;20373;-86
2022/04/01 07:16:42;;;;;;;;;;;5.30;99.90;;;;;;4955886;28;19918;-94
2022/04/01 07:19:31;;;;;;;;;;;5.40;99.90;;;;;;4941075;29;19911;-94
2022/04/01 07:22:09;;;;;;;;;;;;;;;;;;;;;
2022/04/01 07:24:35;;;;;;;;;;;5.50;99.90;;;;;;4947789;29;19911;-94
2022/04/01 07:27:11;;;;;;;;;;;5.50;99.90;;;;;;4955939;29;19945;-93
2022/04/01 07:29:39;;;;;;;;;;;5.50;99.90;;;;;;4955251;29;19911;-95
2022/04/01 07:32:32;;;;;;;;;;;5.60;99.90;;;;;;4954956;29;19911;-94
2022/04/01 07:41:10;;;;;;;;;;;5.70;99.90;;;;;;4896000;29;19920;-94
2022/04/01 07:43:36;;;;;;;;;;;5.90;99.90;;;;;;4931077;29;19915;-94
2022/04/01 07:46:12;;;;;;;;;;;;;;;;;;;;;
2022/04/01 07:48:51;;;;;;;;;;;5.90;99.90;;;;;;4956663;29;19933;-95
2022/04/01 07:51:48;;;;;;;;;;;5.90;99.90;;;;;;4934072;29;19914;-95
2022/04/01 07:57:33;;;;;;;;;;;6.00;99.90;;;;;;4933941;29;19911;-95
2022/04/01 08:00:02;;;;;;;;;;;6.10;99.90;;;;;;4936089;29;19934;-93
2022/04/01 08:02:57;;;;;;;;;;;;;;;;;;;;;
2022/04/01 08:06:01;;;;;;;;;;;6.10;99.90;;;;;;4915295;29;19975;-94
2022/04/01 08:08:55;;;;;;;;;;;6.10;99.90;;;;;;4884709;23;19913;-96
2022/04/01 08:17:37;;;;;;;;;;;6.30;99.90;;;;;;4922826;29;19910;-94
2022/04/01 08:20:33;;;;;;;;;;;;;;;;;;;;;
2022/04/01 08:23:21;;;;;;;;;;;;;;;;;;;;;
2022/04/01 08:25:56;;;;;;;;;;;6.60;99.90;;;;;;4934880;29;19910;-94
2022/04/01 08:30:57;;;;;;;;;;;6.70;99.90;;;;;;5056755;23;19962;-95
2022/04/01 08:33:22;;;;;;;;;;;6.70;99.90;;;;;;4935042;29;19910;-93
2022/04/01 08:35:51;;;;;;;;;;;6.80;99.90;;;;;;4935709;29;20388;-96
2022/04/01 08:38:16;;;;;;;;;;;6.90;99.90;;;;;;4936273;29;19935;-95
2022/04/01 08:40:54;;;;;;;;;;;6.90;99.90;;;;;;4937250;29;19919;-95
2022/04/01 08:46:30;;;;;;;;;;;7.00;99.90;;;;;;4915923;29;19911;-93
2022/04/01 08:49:26;;;;;;;;;;;7.10;99.90;;;;;;4919580;29;19911;-96
2022/04/01 08:52:12;;;;;;;;;;;7.20;99.90;;;;;;4912600;29;19946;-95
2022/04/01 08:54:41;;;;;;;;;;;7.30;99.90;;;;;;4934485;29;20014;-94
2022/04/01 08:57:10;;;;;;;;;;;7.20;99.90;;;;;;4935420;29;19910;-95
2022/04/01 08:59:57;;;;;;;;;;;7.10;99.90;;;;;;4939172;29;19950;-96
2022/04/01 09:02:33;;;;;;;;;;;7.20;99.90;;;;;;4939320;29;19923;-95
2022/04/01 09:05:11;;;;;;;;;;;7.40;99.90;;;;;;4934388;29;19915;-95
2022/04/01 09:14:32;;;;;;;;;;;7.40;98.90;;;;;;4943501;29;19918;-95
2022/04/01 10:53:56;;;;;;;;;;;8.90;91.20;;;;;;5750540;23;19930;-90
2022/04/01 10:56:47;;;;;;;;;;;8.80;91.10;;;;;;4920018;29;19967;-95
2022/04/01 10:59:16;;;;;;;;;;;8.80;91.00;;;;;;4901869;29;20390;-94
2022/04/01 11:08:09;;;;;;;;;;;9.50;91.00;;;;;;4918089;29;19975;-92
2022/04/01 11:10:53;;;;;;;;;;;9.60;90.40;;;;;;4919204;29;20288;-95
2022/04/01 11:13:50;;;;;;;;;;;9.70;90.20;;;;;;4904107;29;19947;-96
2022/04/01 11:16:25;;;;;;;;;;;9.50;90.30;;;;;;4895248;29;19934;-95
2022/04/01 11:19:15;;;;;;;;;;;9.40;91.00;;;;;;4909604;29;19959;-94
2022/04/01 11:22:01;;;;;;;;;;;9.50;91.50;;;;;;4901307;29;19971;-94
2022/04/01 11:24:41;;;;;;;;;;;;;;;;;;;;;
2022/04/01 11:27:34;;;;;;;;;;;9.30;92.50;;;;;;4917563;29;19911;-95
2022/04/01 11:30:26;;;;;;;;;;;;;;;;;;;;;
2022/04/01 11:33:32;;;;;;;;;;;9.40;90.60;;;;;;4919381;29;19917;-95
2022/04/01 11:35:57;;;;;;;;;;;9.80;90.80;;;;;;4917756;29;19921;-94
2022/04/01 11:45:17;;;;;;;;;;;10.00;89.80;;;;;;4917589;29;19926;-94
2022/04/01 11:48:45;;;;;;;;;;;9.70;89.00;;;;;;4902345;29;20340;-95
2022/04/01 11:51:28;;;;;;;;;;;9.60;87.50;;;;;;4859337;29;19928;-95
2022/04/01 12:13:03;;;;;;;;;;;;;;;;;;;;;
2022/04/01 12:16:24;;;;;;;;;;;;;;;;;;;;;
2022/04/01 12:22:06;;;;;;;;;;;10.40;91.40;;;;;;4810081;29;19968;-95
2022/04/01 12:28:09;;;;;;;;;;;;;;;;;;;;;
2022/04/01 12:31:06;;;;;;;;;;;10.00;92.40;;;;;;4845444;29;20011;-96
2022/04/01 12:34:11;;;;;;;;;;;10.10;92.20;;;;;;4844519;29;19920;-96
2022/04/01 12:37:05;;;;;;;;;;;10.20;92.70;;;;;;4842781;29;19938;-94
2022/04/01 13:07:54;;;;;;;;;;;;;;;;;;;;;
2022/04/01 13:53:37;;;;;;;;;;;12.00;72.40;;;;;;4918698;29;20304;-93
2022/04/01 14:08:24;;;;;;;;;;;11.10;72.80;;;;;;4852718;29;19912;-94
2022/04/01 14:14:01;;;;;;;;;;;11.90;70.90;;;;;;4892962;29;19940;-94
2022/04/01 14:16:53;;;;;;;;;;;;;;;;;;;;;
2022/04/01 14:19:28;;;;;;;;;;;13.20;72.80;;;;;;4939835;29;20130;-94
2022/04/01 14:22:25;;;;;;;;;;;13.00;71.40;;;;;;4924579;29;20315;-95
2022/04/01 14:41:27;;;;;;;;;;;;;;;;;;;;;
2022/04/01 15:02:37;;;;;;;;;;;19.40;60.50;;;;;;4947993;29;20150;-95
2022/04/01 15:22:03;;;;;;;;;;;12.10;64.70;;;;;;4902962;29;19922;-96
2022/04/01 15:51:31;;;;;;;;;;;18.20;60.60;;;;;;4832807;29;19919;-95
2022/04/01 15:54:09;;;;;;;;;;;18.90;59.80;;;;;;4863120;29;19968;-95
2022/04/01 16:00:11;;;;;;;;;;;15.00;62.50;;;;;;4849511;29;19920;-96
2022/04/01 16:05:58;;;;;;;;;;;17.70;61.60;;;;;;4843670;29;19913;-96
2022/04/01 16:11:31;;;;;;;;;;;18.40;61.60;;;;;;4881385;29;19920;-96
2022/04/01 16:14:27;;;;;;;;;;;19.60;60.20;;;;;;4846619;29;19916;-95
2022/04/01 16:30:33;;;;;;;;;;;10.50;76.70;;;;;;5013917;23;19927;-95
2022/04/01 16:33:06;;;;;;;;;;;10.50;75.40;;;;;;4935248;29;20037;-95
2022/04/01 16:35:53;;;;;;;;;;;10.20;74.80;;;;;;4918684;29;19915;-95
2022/04/01 16:38:22;;;;;;;;;;;9.90;73.70;;;;;;4935807;29;19910;-93
2022/04/01 16:40:51;;;;;;;;;;;9.80;77.50;;;;;;4935459;29;19926;-94
2022/04/01 16:43:19;;;;;;;;;;;9.80;79.70;;;;;;4937484;29;20371;-96
2022/04/01 16:48:50;;;;;;;;;;;10.30;79.90;;;;;;4939909;29;19934;-92
2022/04/01 16:51:16;;;;;;;;;;;10.50;81.40;;;;;;4937068;29;20307;-93
2022/04/01 16:53:41;;;;;;;;;;;10.30;86.30;;;;;;4933693;29;19911;-92
2022/04/01 16:56:10;;;;;;;;;;;9.30;94.20;;;;;;4938089;29;19965;-92
2022/04/01 16:58:35;;;;;;;;;;;8.20;99.70;;;;;;4933417;29;19965;-92
2022/04/01 17:01:01;;;;;;;;;;;7.60;99.90;;;;;;4934687;29;20014;-90
2022/04/01 17:03:27;;;;;;;;;;;7.10;99.90;;;;;;4933226;29;19917;-90
2022/04/01 17:14:05;;;;;;;;;;;6.30;99.90;;;;;;4934848;29;19922;-92
2022/04/01 17:16:32;;;;;;;;;;;6.20;99.90;;;;;;4936355;29;19911;-92
2022/04/01 17:18:58;;;;;;;;;;;6.10;99.90;;;;;;4934063;29;19922;-93
2022/04/01 17:21:24;;;;;;;;;;;6.20;99.90;;;;;;4933142;29;20021;-90
2022/04/01 17:23:50;;;;;;;;;;;6.20;99.90;;;;;;4932285;29;19922;-90
2022/04/01 17:26:16;;;;;;;;;;;6.30;99.90;;;;;;4917320;29;19947;-89
2022/04/01 17:28:41;;;;;;;;;;;6.30;99.90;;;;;;4936308;29;19970;-90
2022/04/01 17:31:07;;;;;;;;;;;6.50;99.90;;;;;;4939133;29;19910;-90
2022/04/01 17:33:34;;;;;;;;;;;6.70;99.90;;;;;;4925330;29;20390;-90
2022/04/01 17:36:01;;;;;;;;;;;6.60;99.90;;;;;;4934233;29;20808;-91
2022/04/01 17:38:28;;;;;;;;;;;6.60;99.90;;;;;;4917012;29;19914;-91
2022/04/01 17:41:00;;;;;;;;;;;6.40;99.90;;;;;;4919112;29;20339;-90
2022/04/01 17:43:26;;;;;;;;;;;5.80;99.90;;;;;;4935252;29;19907;-89
2022/04/01 17:45:52;;;;;;;;;;;5.50;99.90;;;;;;4935577;29;20006;-91
2022/04/01 17:48:18;;;;;;;;;;;5.40;99.90;;;;;;4916789;29;19911;-89
2022/04/01 17:50:44;;;;;;;;;;;5.20;99.90;;;;;;4932545;29;19962;-89
2022/04/01 17:53:09;;;;;;;;;;;5.10;99.90;;;;;;4935358;29;19978;-89
2022/04/01 17:55:37;;;;;;;;;;;5.00;99.90;;;;;;4933450;29;19946;-90
2022/04/01 17:58:03;;;;;;;;;;;5.10;99.90;;;;;;4933689;29;20426;-89
2022/04/01 18:00:30;;;;;;;;;;;5.20;99.90;;;;;;4934157;29;19988;-87
2022/04/01 18:02:56;;;;;;;;;;;5.20;99.90;;;;;;4936999;29;19911;-87
2022/04/01 18:05:22;;;;;;;;;;;5.30;99.90;;;;;;4936897;29;19911;-87
2022/04/01 18:08:01;;;;;;;;;;;5.40;99.90;;;;;;4935786;29;20410;-88
2022/04/01 18:10:27;;;;;;;;;;;5.40;99.90;;;;;;4936881;29;19911;-87
2022/04/01 18:12:53;;;;;;;;;;;5.40;99.90;;;;;;4919955;29;20336;-88
2022/04/01 18:15:18;;;;;;;;;;;5.50;99.90;;;;;;4936932;29;19911;-88
2022/04/01 18:17:44;;;;;;;;;;;5.40;99.90;;;;;;4936700;29;19915;-88
2022/04/01 18:20:10;;;;;;;;;;;5.40;99.90;;;;;;4935506;29;20010;-88
2022/04/01 18:22:36;;;;;;;;;;;5.50;99.90;;;;;;4936578;29;19915;-89
2022/04/01 18:25:12;;;;;;;;;;;5.40;99.90;;;;;;4936682;29;19959;-88
2022/04/01 18:27:40;;;;;;;;;;;5.30;99.90;;;;;;4936673;29;19911;-88
2022/04/01 18:30:07;;;;;;;;;;;5.40;99.90;;;;;;4918879;29;19923;-88
2022/04/01 18:32:35;;;;;;;;;;;5.40;99.90;;;;;;4935310;29;19942;-88
2022/04/01 18:35:03;;;;;;;;;;;5.30;99.90;;;;;;4934888;29;20170;-89
2022/04/01 18:37:29;;;;;;;;;;;5.30;99.90;;;;;;4934104;29;19915;-88
2022/04/01 18:39:56;;;;;;;;;;;5.30;99.90;;;;;;4918518;29;19910;-90
2022/04/01 18:42:21;;;;;;;;;;;5.20;99.90;;;;;;4936266;29;19915;-89
2022/04/01 18:44:47;;;;;;;;;;;5.30;99.90;;;;;;4919452;29;19911;-89
2022/04/01 18:47:13;;;;;;;;;;;5.20;99.90;;;;;;4918110;29;19957;-92
2022/04/01 18:49:40;;;;;;;;;;;5.20;99.90;;;;;;4936143;29;20291;-91
2022/04/01 18:52:05;;;;;;;;;;;5.20;99.90;;;;;;4937685;29;19911;-89
2022/04/01 18:54:32;;;;;;;;;;;5.20;99.90;;;;;;4935506;29;19957;-91
2022/04/01 18:56:59;;;;;;;;;;;5.20;99.90;;;;;;4937674;29;19930;-91
2022/04/01 18:59:25;;;;;;;;;;;5.20;99.90;;;;;;4935129;29;20323;-91
2022/04/01 19:02:13;;;;;;;;;;;5.30;99.90;;;;;;4935070;29;19925;-91
2022/04/01 19:04:53;;;;;;;;;;;5.30;99.90;;;;;;4935669;29;19910;-92
2022/04/01 19:07:28;;;;;;;;;;;5.30;99.90;;;;;;4938333;29;20006;-91
2022/04/01 19:09:56;;;;;;;;;;;5.30;99.90;;;;;;4936244;29;20371;-91
2022/04/01 19:12:26;;;;;;;;;;;5.30;99.90;;;;;;4936047;29;19911;-96
2022/04/01 19:14:59;;;;;;;;;;;5.20;99.90;;;;;;4936692;29;19911;-91
2022/04/01 19:17:28;;;;;;;;;;;5.20;99.90;;;;;;4934406;29;19918;-88
2022/04/01 19:19:54;;;;;;;;;;;5.20;99.90;;;;;;4935730;29;20335;-89
2022/04/01 19:22:22;;;;;;;;;;;5.20;99.90;;;;;;4935775;29;20082;-89
2022/04/01 19:24:51;;;;;;;;;;;5.10;99.90;;;;;;4955490;29;19915;-88
2022/04/01 19:27:18;;;;;;;;;;;5.10;99.90;;;;;;4935862;29;19942;-88
2022/04/01 19:29:43;;;;;;;;;;;5.10;99.90;;;;;;4935397;29;19923;-87
2022/04/01 19:32:09;;;;;;;;;;;5.00;99.90;;;;;;4935291;29;20271;-87
2022/04/01 19:34:34;;;;;;;;;;;5.00;99.90;;;;;;4935361;29;20182;-88
2022/04/01 19:37:01;;;;;;;;;;;5.00;99.90;;;;;;4934133;29;20009;-87
2022/04/01 19:39:27;;;;;;;;;;;4.90;99.90;;;;;;4935312;29;20077;-89
2022/04/01 19:41:53;;;;;;;;;;;4.90;99.90;;;;;;4935779;29;19966;-88
2022/04/01 19:44:19;;;;;;;;;;;4.90;99.90;;;;;;4934160;29;19977;-87
2022/04/01 19:46:45;;;;;;;;;;;4.80;99.90;;;;;;4935163;29;19921;-88
2022/04/01 19:49:11;;;;;;;;;;;4.90;99.90;;;;;;4935232;29;19942;-89
2022/04/01 19:51:37;;;;;;;;;;;5.00;99.90;;;;;;4935093;29;19918;-88
2022/04/01 19:54:04;;;;;;;;;;;4.90;99.90;;;;;;4935050;29;19959;-88
2022/04/01 19:56:30;;;;;;;;;;;4.90;99.90;;;;;;4935316;29;20077;-89
2022/04/01 19:58:55;;;;;;;;;;;4.90;99.90;;;;;;4935012;29;20088;-88
2022/04/01 20:01:22;;;;;;;;;;;4.80;99.90;;;;;;4934960;29;19919;-87
2022/04/01 20:03:47;;;;;;;;;;;4.70;99.90;;;;;;4934883;29;19911;-89
2022/04/01 20:06:13;;;;;;;;;;;4.60;99.90;;;;;;4934857;29;20394;-89
2022/04/01 20:08:39;;;;;;;;;;;4.70;99.90;;;;;;4934808;29;20395;-88
2022/04/01 20:11:04;;;;;;;;;;;4.70;99.90;;;;;;4917534;29;19918;-89
2022/04/01 20:13:30;;;;;;;;;;;4.60;99.90;;;;;;4934797;29;20363;-88
2022/04/01 20:15:56;;;;;;;;;;;4.60;99.90;;;;;;4949061;29;19917;-88
2022/04/01 20:18:22;;;;;;;;;;;4.60;99.90;;;;;;4934620;29;20295;-89
2022/04/01 20:20:49;;;;;;;;;;;4.70;99.90;;;;;;4934612;29;19978;-89
2022/04/01 20:23:15;;;;;;;;;;;4.70;99.90;;;;;;4934675;29;20423;-90
2022/04/01 20:25:42;;;;;;;;;;;4.60;99.90;;;;;;4933382;29;19911;-89
2022/04/01 20:28:08;;;;;;;;;;;4.60;99.90;;;;;;4934394;29;19910;-89
2022/04/01 20:30:33;;;;;;;;;;;4.70;99.90;;;;;;4934094;29;20142;-89
2022/04/01 20:32:59;;;;;;;;;;;4.60;99.90;;;;;;4934409;29;19917;-89
2022/04/01 20:35:26;;;;;;;;;;;4.50;99.90;;;;;;4934187;29;19911;-88
2022/04/01 20:37:51;;;;;;;;;;;4.50;99.90;;;;;;4934366;29;19918;-89
2022/04/01 20:40:17;;;;;;;;;;;4.60;99.90;;;;;;4934245;29;20283;-88
2022/04/01 20:42:43;;;;;;;;;;;4.60;99.90;;;;;;4926701;29;19911;-89
2022/04/01 20:45:08;;;;;;;;;;;4.50;99.90;;;;;;4913904;29;19911;-88
2022/04/01 20:47:34;;;;;;;;;;;4.40;99.90;;;;;;4913614;29;20389;-89
2022/04/01 20:50:00;;;;;;;;;;;4.40;99.90;;;;;;4915006;29;19911;-88
2022/04/01 20:52:25;;;;;;;;;;;4.40;99.90;;;;;;4915031;29;19918;-89
2022/04/01 20:54:51;;;;;;;;;;;4.40;99.90;;;;;;4913980;29;19915;-87
2022/04/01 20:57:17;;;;;;;;;;;4.40;99.90;;;;;;4915826;29;19922;-88
2022/04/01 20:59:44;;;;;;;;;;;4.40;99.90;;;;;;4914921;29;19911;-88
2022/04/01 21:02:15;;;;;;;;;;;4.40;99.90;;;;;;4928391;29;19926;-93
2022/04/01 21:04:41;;;;;;;;;;;4.40;99.90;;;;;;4929303;29;19946;-88
2022/04/01 21:07:07;;;;;;;;;;;4.40;99.90;;;;;;4914797;29;19911;-88
2022/04/01 21:09:32;;;;;;;;;;;4.30;99.90;;;;;;4914696;29;19918;-89